Penticton Airport
CYYF : now visible

Airfield :











YOU CAN JOIN US ON...

 
LOGIN :

Register | Disclaimer

   EN    FR    IT 

 









Legend :    VFR   Marginal VFR   IFR   Intensive IFR   Very Intensive IFR
Visi :
Ceiling :
>= 8 km
>= 3000ft
5 to 8 km
1000 to 3000 ft
1500m to 5 km
500 to 1000 ft
800 to 1500m
200 to 500 ft
< 800m
< 200 ft
Symbols :   Thunderstorms  Fog  Heavy snow  Heavy precipitations  Wind > 20 kt






- Airport Elevation : 1129 ft
- IATA code : YYF


CYYF - Penticton

CURRENT METAR :
  • 161200Z 16010G16KT 15SM OVC018 M02/M05 A3036 RMK SC8 SLP299

EXPIRED METARs :
  • 161100Z 17012KT 15SM OVC018 M01/M05 A3035 RMK SC8 SLP296
  • 161000Z 16012G18KT 15SM OVC018 M01/M04 A3034 RMK SC8 SLP291

TAF TAF CYYF
Valid from the 16 at 07:00 until the 16 at 19:00 UTC


160638Z 1607/1619 18012KT P6SM FEW008 BKN015 OVC025
TEMPO 1607/1613 SCT015 BKN025
FM161300 17012KT 5SM BR BKN012
TEMPO 1613/1616 P6SM NSW SCT012 BKN180
FM161600 18008KT P6SM SCT020 OVC060
TEMPO 1616/1619 2SM -SN OVC020 RMK NXT FCST BY 161300Z



MET'MAP, your aeronautical weather chart ! - Copyright ORBIFLY December 2007 - Disclaimer

ORBIFLY MET'MAP TEAM :

Programming & Development : Alexandra Zaïnal
Concept & original design : Baudouin d'Aumeries
Assistance for programming : Marc-Olivier Méhu
Technical & hardware support : Manuel Goepfert

Contact : metmap@orbifly.com




SOURCES & CREDITS :

   NOAA       Earth
Advisory